sensor_id;sensor_type;location;lat;lon;timestamp;temperature;humidity
43143;DHT22;28750;59.842;17.584;2022-10-30T00:00:40;3.60;99.90
43143;DHT22;28750;59.842;17.584;2022-10-30T00:03:13;3.70;99.90
43143;DHT22;28750;59.842;17.584;2022-10-30T00:05:45;3.60;78.40
43143;DHT22;28750;59.842;17.584;2022-10-30T00:08:14;3.70;29.60
43143;DHT22;28750;59.842;17.584;2022-10-30T00:10:42;3.60;99.90
43143;DHT22;28750;59.842;17.584;2022-10-30T00:13:10;3.60;99.90
43143;DHT22;28750;59.842;17.584;2022-10-30T00:15:37;3.30;99.90
43143;DHT22;28750;59.842;17.584;2022-10-30T00:18:05;3.20;1.00
43143;DHT22;28750;59.842;17.584;2022-10-30T00:20:35;3.10;77.30
43143;DHT22;28750;59.842;17.584;2022-10-30T00:23:02;3.00;99.90
43143;DHT22;28750;59.842;17.584;2022-10-30T00:25:29;3.10;99.90
43143;DHT22;28750;59.842;17.584;2022-10-30T00:27:56;3.30;99.90
43143;DHT22;28750;59.842;17.584;2022-10-30T00:30:23;3.30;99.90
43143;DHT22;28750;59.842;17.584;2022-10-30T00:32:50;3.20;1.00
43143;DHT22;28750;59.842;17.584;2022-10-30T00:35:17;3.30;1.00
43143;DHT22;28750;59.842;17.584;2022-10-30T00:37:44;3.20;99.90
43143;DHT22;28750;59.842;17.584;2022-10-30T00:40:14;3.20;99.90
43143;DHT22;28750;59.842;17.584;2022-10-30T00:42:42;3.30;99.90
43143;DHT22;28750;59.842;17.584;2022-10-30T00:45:13;3.40;99.90
43143;DHT22;28750;59.842;17.584;2022-10-30T00:47:53;3.40;69.90
43143;DHT22;28750;59.842;17.584;2022-10-30T00:50:25;3.40;1.00
43143;DHT22;28750;59.842;17.584;2022-10-30T00:52:54;3.10;1.00
43143;DHT22;28750;59.842;17.584;2022-10-30T00:55:33;3.00;1.00
43143;DHT22;28750;59.842;17.584;2022-10-30T00:58:03;2.80;99.90
43143;DHT22;28750;59.842;17.584;2022-10-30T01:00:32;2.80;99.90
43143;DHT22;28750;59.842;17.584;2022-10-30T01:03:02;2.90;99.90
43143;DHT22;28750;59.842;17.584;2022-10-30T01:05:32;3.00;1.00
43143;DHT22;28750;59.842;17.584;2022-10-30T01:07:59;3.10;1.00
43143;DHT22;28750;59.842;17.584;2022-10-30T01:10:26;3.20;20.80
43143;DHT22;28750;59.842;17.584;2022-10-30T01:12:54;3.20;1.00
43143;DHT22;28750;59.842;17.584;2022-10-30T01:15:32;3.20;1.00
43143;DHT22;28750;59.842;17.584;2022-10-30T01:27:38;3.10;99.90
43143;DHT22;28750;59.842;17.584;2022-10-30T01:38:49;3.20;1.00
43143;DHT22;28750;59.842;17.584;2022-10-30T01:41:17;3.10;99.90
43143;DHT22;28750;59.842;17.584;2022-10-30T01:43:46;3.00;1.00
43143;DHT22;28750;59.842;17.584;2022-10-30T02:00:26;2.80;99.90
43143;DHT22;28750;59.842;17.584;2022-10-30T02:02:54;2.80;99.90
43143;DHT22;28750;59.842;17.584;2022-10-30T02:05:43;2.70;99.90
43143;DHT22;28750;59.842;17.584;2022-10-30T02:08:13;2.80;99.90
43143;DHT22;28750;59.842;17.584;2022-10-30T02:10:42;2.90;99.90
43143;DHT22;28750;59.842;17.584;2022-10-30T02:13:09;2.90;99.90
43143;DHT22;28750;59.842;17.584;2022-10-30T02:15:37;3.00;99.90
43143;DHT22;28750;59.842;17.584;2022-10-30T02:18:04;2.90;99.90
43143;DHT22;28750;59.842;17.584;2022-10-30T02:20:31;2.90;99.90
43143;DHT22;28750;59.842;17.584;2022-10-30T02:22:59;2.80;99.90
43143;DHT22;28750;59.842;17.584;2022-10-30T02:25:26;2.80;99.90
43143;DHT22;28750;59.842;17.584;2022-10-30T02:27:53;2.80;99.90
43143;DHT22;28750;59.842;17.584;2022-10-30T02:30:20;2.80;99.90
43143;DHT22;28750;59.842;17.584;2022-10-30T02:32:47;2.90;99.90
43143;DHT22;28750;59.842;17.584;2022-10-30T02:35:14;3.00;99.90
43143;DHT22;28750;59.842;17.584;2022-10-30T02:37:41;2.90;99.90
43143;DHT22;28750;59.842;17.584;2022-10-30T02:40:08;2.90;39.30
43143;DHT22;28750;59.842;17.584;2022-10-30T02:42:36;2.90;58.80
43143;DHT22;28750;59.842;17.584;2022-10-30T02:45:03;2.90;23.70
43143;DHT22;28750;59.842;17.584;2022-10-30T02:47:30;3.00;46.90
43143;DHT22;28750;59.842;17.584;2022-10-30T02:49:58;2.90;99.90
43143;DHT22;28750;59.842;17.584;2022-10-30T02:52:25;2.80;99.90
43143;DHT22;28750;59.842;17.584;2022-10-30T02:54:52;2.80;99.90
43143;DHT22;28750;59.842;17.584;2022-10-30T02:57:19;2.70;99.90
43143;DHT22;28750;59.842;17.584;2022-10-30T02:59:46;2.70;1.00
43143;DHT22;28750;59.842;17.584;2022-10-30T03:02:14;2.60;9.30
43143;DHT22;28750;59.842;17.584;2022-10-30T03:04:41;2.60;99.90
43143;DHT22;28750;59.842;17.584;2022-10-30T03:07:08;2.60;99.90
43143;DHT22;28750;59.842;17.584;2022-10-30T03:09:35;2.60;99.90
43143;DHT22;28750;59.842;17.584;2022-10-30T03:12:01;2.60;99.90
43143;DHT22;28750;59.842;17.584;2022-10-30T03:14:28;2.50;99.90
43143;DHT22;28750;59.842;17.584;2022-10-30T03:16:55;2.50;99.90
43143;DHT22;28750;59.842;17.584;2022-10-30T03:19:22;2.50;99.90
43143;DHT22;28750;59.842;17.584;2022-10-30T03:21:49;2.50;99.90
43143;DHT22;28750;59.842;17.584;2022-10-30T03:24:16;2.40;99.90
43143;DHT22;28750;59.842;17.584;2022-10-30T03:26:43;2.40;99.90
43143;DHT22;28750;59.842;17.584;2022-10-30T03:29:10;2.40;1.00
43143;DHT22;28750;59.842;17.584;2022-10-30T03:31:37;2.40;1.00
43143;DHT22;28750;59.842;17.584;2022-10-30T03:34:04;2.40;98.10
43143;DHT22;28750;59.842;17.584;2022-10-30T03:36:31;2.30;7.50
43143;DHT22;28750;59.842;17.584;2022-10-30T03:38:57;2.10;1.00
43143;DHT22;28750;59.842;17.584;2022-10-30T03:41:25;2.30;1.00
43143;DHT22;28750;59.842;17.584;2022-10-30T03:43:52;2.20;99.90
43143;DHT22;28750;59.842;17.584;2022-10-30T03:46:19;2.10;99.90
43143;DHT22;28750;59.842;17.584;2022-10-30T03:48:49;2.00;99.90
43143;DHT22;28750;59.842;17.584;2022-10-30T03:51:16;2.00;99.90
43143;DHT22;28750;59.842;17.584;2022-10-30T03:53:43;2.10;1.00
43143;DHT22;28750;59.842;17.584;2022-10-30T03:56:10;2.00;1.00
43143;DHT22;28750;59.842;17.584;2022-10-30T03:58:37;1.60;1.00
43143;DHT22;28750;59.842;17.584;2022-10-30T04:01:05;1.70;1.00
43143;DHT22;28750;59.842;17.584;2022-10-30T04:03:33;1.80;1.00
43143;DHT22;28750;59.842;17.584;2022-10-30T04:06:00;1.80;1.00
43143;DHT22;28750;59.842;17.584;2022-10-30T04:08:27;1.90;57.30
43143;DHT22;28750;59.842;17.584;2022-10-30T04:10:54;1.80;47.90
43143;DHT22;28750;59.842;17.584;2022-10-30T04:13:21;1.80;48.50
43143;DHT22;28750;59.842;17.584;2022-10-30T04:15:48;1.90;90.30
43143;DHT22;28750;59.842;17.584;2022-10-30T04:18:16;1.90;94.40
43143;DHT22;28750;59.842;17.584;2022-10-30T04:20:44;1.70;99.90
43143;DHT22;28750;59.842;17.584;2022-10-30T04:23:18;1.60;47.90
43143;DHT22;28750;59.842;17.584;2022-10-30T04:25:45;1.50;84.50
43143;DHT22;28750;59.842;17.584;2022-10-30T04:28:13;1.50;99.90
43143;DHT22;28750;59.842;17.584;2022-10-30T04:30:40;1.50;99.90
43143;DHT22;28750;59.842;17.584;2022-10-30T04:33:10;1.50;99.90
43143;DHT22;28750;59.842;17.584;2022-10-30T04:35:38;1.70;99.90
43143;DHT22;28750;59.842;17.584;2022-10-30T04:38:07;1.70;99.90
43143;DHT22;28750;59.842;17.584;2022-10-30T04:40:39;1.50;92.00
43143;DHT22;28750;59.842;17.584;2022-10-30T04:43:08;1.50;99.90
43143;DHT22;28750;59.842;17.584;2022-10-30T04:45:36;1.50;99.90
43143;DHT22;28750;59.842;17.584;2022-10-30T04:48:12;1.40;99.90
43143;DHT22;28750;59.842;17.584;2022-10-30T04:50:39;1.40;99.90
43143;DHT22;28750;59.842;17.584;2022-10-30T04:53:16;1.40;99.90
43143;DHT22;28750;59.842;17.584;2022-10-30T04:55:43;1.40;99.90
43143;DHT22;28750;59.842;17.584;2022-10-30T04:58:11;1.30;99.90
43143;DHT22;28750;59.842;17.584;2022-10-30T05:00:39;1.20;99.90
43143;DHT22;28750;59.842;17.584;2022-10-30T05:03:06;1.40;99.90
43143;DHT22;28750;59.842;17.584;2022-10-30T05:05:33;1.50;99.90
43143;DHT22;28750;59.842;17.584;2022-10-30T05:08:00;1.60;99.90
43143;DHT22;28750;59.842;17.584;2022-10-30T05:10:27;1.60;99.90
43143;DHT22;28750;59.842;17.584;2022-10-30T05:12:54;1.80;99.90
43143;DHT22;28750;59.842;17.584;2022-10-30T05:15:21;1.80;99.90
43143;DHT22;28750;59.842;17.584;2022-10-30T05:17:51;1.80;99.90
43143;DHT22;28750;59.842;17.584;2022-10-30T05:20:19;1.90;99.90
43143;DHT22;28750;59.842;17.584;2022-10-30T05:22:56;1.80;5.30
43143;DHT22;28750;59.842;17.584;2022-10-30T05:25:24;1.90;99.90
43143;DHT22;28750;59.842;17.584;2022-10-30T05:27:59;1.70;70.20
43143;DHT22;28750;59.842;17.584;2022-10-30T05:30:27;1.50;1.00
43143;DHT22;28750;59.842;17.584;2022-10-30T05:33:03;1.40;16.40
43143;DHT22;28750;59.842;17.584;2022-10-30T05:35:32;1.50;99.90
43143;DHT22;28750;59.842;17.584;2022-10-30T05:38:01;1.50;99.90
43143;DHT22;28750;59.842;17.584;2022-10-30T05:40:28;1.60;99.90
43143;DHT22;28750;59.842;17.584;2022-10-30T05:42:55;1.70;1.00
43143;DHT22;28750;59.842;17.584;2022-10-30T05:45:22;1.90;35.30
43143;DHT22;28750;59.842;17.584;2022-10-30T05:48:10;2.00;20.30
43143;DHT22;28750;59.842;17.584;2022-10-30T05:50:36;2.10;1.00
43143;DHT22;28750;59.842;17.584;2022-10-30T05:53:04;2.20;99.90
43143;DHT22;28750;59.842;17.584;2022-10-30T05:55:31;2.20;99.90
43143;DHT22;28750;59.842;17.584;2022-10-30T05:58:00;2.20;99.90
43143;DHT22;28750;59.842;17.584;2022-10-30T06:00:29;2.30;99.90
43143;DHT22;28750;59.842;17.584;2022-10-30T06:03:00;2.20;99.90
43143;DHT22;28750;59.842;17.584;2022-10-30T06:05:33;2.20;99.90
43143;DHT22;28750;59.842;17.584;2022-10-30T06:08:00;2.20;99.90
43143;DHT22;28750;59.842;17.584;2022-10-30T06:10:28;2.00;99.90
43143;DHT22;28750;59.842;17.584;2022-10-30T06:12:59;1.90;99.90
43143;DHT22;28750;59.842;17.584;2022-10-30T06:15:29;1.90;99.90
43143;DHT22;28750;59.842;17.584;2022-10-30T06:17:56;1.80;99.90
43143;DHT22;28750;59.842;17.584;2022-10-30T06:20:26;1.90;99.90
43143;DHT22;28750;59.842;17.584;2022-10-30T06:25:29;1.80;99.90
43143;DHT22;28750;59.842;17.584;2022-10-30T06:27:56;1.70;99.90
43143;DHT22;28750;59.842;17.584;2022-10-30T06:30:23;1.70;1.00
43143;DHT22;28750;59.842;17.584;2022-10-30T06:33:01;1.70;1.00
43143;DHT22;28750;59.842;17.584;2022-10-30T06:35:28;1.70;1.00
43143;DHT22;28750;59.842;17.584;2022-10-30T06:37:57;1.90;28.90
43143;DHT22;28750;59.842;17.584;2022-10-30T06:40:25;1.90;1.00
43143;DHT22;28750;59.842;17.584;2022-10-30T06:42:54;2.00;1.00
43143;DHT22;28750;59.842;17.584;2022-10-30T06:45:22;2.20;1.00
43143;DHT22;28750;59.842;17.584;2022-10-30T06:47:49;2.30;1.00
43143;DHT22;28750;59.842;17.584;2022-10-30T06:50:18;2.30;99.90
43143;DHT22;28750;59.842;17.584;2022-10-30T06:52:46;2.20;99.90
43143;DHT22;28750;59.842;17.584;2022-10-30T06:55:14;2.10;1.00
43143;DHT22;28750;59.842;17.584;2022-10-30T06:57:41;2.20;1.00
43143;DHT22;28750;59.842;17.584;2022-10-30T07:00:09;2.20;1.00
43143;DHT22;28750;59.842;17.584;2022-10-30T07:02:36;2.30;1.00
43143;DHT22;28750;59.842;17.584;2022-10-30T07:05:03;2.20;1.00
43143;DHT22;28750;59.842;17.584;2022-10-30T07:07:30;2.20;1.00
43143;DHT22;28750;59.842;17.584;2022-10-30T07:09:57;2.10;1.00
43143;DHT22;28750;59.842;17.584;2022-10-30T07:12:24;2.20;1.00
43143;DHT22;28750;59.842;17.584;2022-10-30T07:14:51;2.30;1.00
43143;DHT22;28750;59.842;17.584;2022-10-30T07:17:18;2.30;1.00
43143;DHT22;28750;59.842;17.584;2022-10-30T07:19:44;2.50;41.60
43143;DHT22;28750;59.842;17.584;2022-10-30T07:22:11;2.60;8.00
43143;DHT22;28750;59.842;17.584;2022-10-30T07:24:38;2.80;1.00
43143;DHT22;28750;59.842;17.584;2022-10-30T07:27:05;3.00;1.00
43143;DHT22;28750;59.842;17.584;2022-10-30T07:29:32;3.30;6.60
43143;DHT22;28750;59.842;17.584;2022-10-30T07:31:59;3.30;1.00
43143;DHT22;28750;59.842;17.584;2022-10-30T07:34:26;3.30;99.90
43143;DHT22;28750;59.842;17.584;2022-10-30T07:36:53;3.40;99.90
43143;DHT22;28750;59.842;17.584;2022-10-30T07:39:20;3.50;99.90
43143;DHT22;28750;59.842;17.584;2022-10-30T07:41:50;3.70;99.90
43143;DHT22;28750;59.842;17.584;2022-10-30T07:44:17;3.70;99.90
43143;DHT22;28750;59.842;17.584;2022-10-30T07:46:44;3.80;99.90
43143;DHT22;28750;59.842;17.584;2022-10-30T07:49:11;3.60;1.00
43143;DHT22;28750;59.842;17.584;2022-10-30T07:51:38;3.70;99.90
43143;DHT22;28750;59.842;17.584;2022-10-30T07:54:05;3.90;1.00
43143;DHT22;28750;59.842;17.584;2022-10-30T07:56:31;3.90;99.90
43143;DHT22;28750;59.842;17.584;2022-10-30T07:58:58;4.00;99.90
43143;DHT22;28750;59.842;17.584;2022-10-30T08:01:25;4.10;99.90
43143;DHT22;28750;59.842;17.584;2022-10-30T08:03:52;4.30;90.80
43143;DHT22;28750;59.842;17.584;2022-10-30T08:06:19;4.30;1.00
43143;DHT22;28750;59.842;17.584;2022-10-30T08:08:46;4.20;99.90
43143;DHT22;28750;59.842;17.584;2022-10-30T08:11:13;4.10;99.90
43143;DHT22;28750;59.842;17.584;2022-10-30T08:13:40;4.40;99.90
43143;DHT22;28750;59.842;17.584;2022-10-30T08:16:07;4.70;99.90
43143;DHT22;28750;59.842;17.584;2022-10-30T08:18:34;5.00;99.90
43143;DHT22;28750;59.842;17.584;2022-10-30T08:21:01;5.20;99.90
43143;DHT22;28750;59.842;17.584;2022-10-30T08:23:28;5.30;99.90
43143;DHT22;28750;59.842;17.584;2022-10-30T08:25:57;5.50;99.90
43143;DHT22;28750;59.842;17.584;2022-10-30T08:28:26;5.40;1.00
43143;DHT22;28750;59.842;17.584;2022-10-30T08:30:53;5.50;1.00
43143;DHT22;28750;59.842;17.584;2022-10-30T08:33:20;5.50;1.00
43143;DHT22;28750;59.842;17.584;2022-10-30T08:35:50;5.50;99.90
43143;DHT22;28750;59.842;17.584;2022-10-30T08:38:18;5.00;99.90
43143;DHT22;28750;59.842;17.584;2022-10-30T08:40:45;5.10;99.90
43143;DHT22;28750;59.842;17.584;2022-10-30T08:43:13;5.40;99.90
43143;DHT22;28750;59.842;17.584;2022-10-30T08:45:40;5.40;99.90
43143;DHT22;28750;59.842;17.584;2022-10-30T08:48:10;5.70;99.90
43143;DHT22;28750;59.842;17.584;2022-10-30T08:50:37;5.90;99.90
43143;DHT22;28750;59.842;17.584;2022-10-30T08:53:06;6.10;99.90
43143;DHT22;28750;59.842;17.584;2022-10-30T08:55:34;5.90;99.90
43143;DHT22;28750;59.842;17.584;2022-10-30T08:58:01;6.30;1.00
43143;DHT22;28750;59.842;17.584;2022-10-30T09:00:28;6.50;1.00
43143;DHT22;28750;59.842;17.584;2022-10-30T09:02:56;6.60;1.00
43143;DHT22;28750;59.842;17.584;2022-10-30T09:05:22;7.00;1.00
43143;DHT22;28750;59.842;17.584;2022-10-30T09:07:55;7.00;99.90
43143;DHT22;28750;59.842;17.584;2022-10-30T09:10:23;6.80;99.90
43143;DHT22;28750;59.842;17.584;2022-10-30T09:12:56;6.80;63.30
43143;DHT22;28750;59.842;17.584;2022-10-30T09:15:24;7.00;84.70
43143;DHT22;28750;59.842;17.584;2022-10-30T09:17:56;7.20;99.90
43143;DHT22;28750;59.842;17.584;2022-10-30T09:20:24;7.10;99.90
43143;DHT22;28750;59.842;17.584;2022-10-30T09:22:51;7.00;99.90
43143;DHT22;28750;59.842;17.584;2022-10-30T09:25:18;7.10;99.90
43143;DHT22;28750;59.842;17.584;2022-10-30T09:27:46;6.90;99.90
43143;DHT22;28750;59.842;17.584;2022-10-30T09:30:13;6.90;99.90
43143;DHT22;28750;59.842;17.584;2022-10-30T09:32:40;7.00;99.90
43143;DHT22;28750;59.842;17.584;2022-10-30T09:35:07;7.20;99.90
43143;DHT22;28750;59.842;17.584;2022-10-30T09:37:36;7.40;99.90
43143;DHT22;28750;59.842;17.584;2022-10-30T09:40:04;7.70;99.90
43143;DHT22;28750;59.842;17.584;2022-10-30T09:42:43;7.90;1.00
43143;DHT22;28750;59.842;17.584;2022-10-30T09:45:23;8.30;47.70
43143;DHT22;28750;59.842;17.584;2022-10-30T09:56:35;8.80;99.90
43143;DHT22;28750;59.842;17.584;2022-10-30T10:01:57;8.60;99.90
43143;DHT22;28750;59.842;17.584;2022-10-30T10:04:27;8.50;99.90
43143;DHT22;28750;59.842;17.584;2022-10-30T10:07:03;8.40;99.90
43143;DHT22;28750;59.842;17.584;2022-10-30T10:09:32;8.30;99.90
43143;DHT22;28750;59.842;17.584;2022-10-30T10:12:25;8.40;99.90
43143;DHT22;28750;59.842;17.584;2022-10-30T10:14:55;8.70;99.90
43143;DHT22;28750;59.842;17.584;2022-10-30T10:17:38;9.00;68.30
43143;DHT22;28750;59.842;17.584;2022-10-30T10:20:15;9.30;1.00
43143;DHT22;28750;59.842;17.584;2022-10-30T10:22:48;9.40;88.50
43143;DHT22;28750;59.842;17.584;2022-10-30T10:25:18;9.60;99.90
43143;DHT22;28750;59.842;17.584;2022-10-30T10:45:32;7.80;99.90
43143;DHT22;28750;59.842;17.584;2022-10-30T10:51:02;7.60;99.90
43143;DHT22;28750;59.842;17.584;2022-10-30T10:53:45;7.60;99.90
43143;DHT22;28750;59.842;17.584;2022-10-30T10:56:13;7.50;99.90
43143;DHT22;28750;59.842;17.584;2022-10-30T10:59:02;7.50;99.90
43143;DHT22;28750;59.842;17.584;2022-10-30T11:01:38;7.50;1.00
43143;DHT22;28750;59.842;17.584;2022-10-30T11:06:55;7.50;99.90
43143;DHT22;28750;59.842;17.584;2022-10-30T11:09:25;7.50;1.00
43143;DHT22;28750;59.842;17.584;2022-10-30T11:11:53;7.60;1.00
43143;DHT22;28750;59.842;17.584;2022-10-30T11:14:31;7.50;1.00
43143;DHT22;28750;59.842;17.584;2022-10-30T11:19:37;7.50;99.90
43143;DHT22;28750;59.842;17.584;2022-10-30T11:24:53;7.40;99.90
43143;DHT22;28750;59.842;17.584;2022-10-30T11:30:01;7.30;99.90
43143;DHT22;28750;59.842;17.584;2022-10-30T11:32:31;7.50;1.00
43143;DHT22;28750;59.842;17.584;2022-10-30T11:37:37;7.40;99.90
43143;DHT22;28750;59.842;17.584;2022-10-30T11:42:50;7.70;99.90
43143;DHT22;28750;59.842;17.584;2022-10-30T11:47:55;7.50;99.90
43143;DHT22;28750;59.842;17.584;2022-10-30T11:50:26;7.50;99.90
43143;DHT22;28750;59.842;17.584;2022-10-30T11:53:08;7.50;99.90
43143;DHT22;28750;59.842;17.584;2022-10-30T11:55:40;7.50;1.00
43143;DHT22;28750;59.842;17.584;2022-10-30T11:58:23;7.40;1.00
43143;DHT22;28750;59.842;17.584;2022-10-30T12:03:34;7.30;99.90
43143;DHT22;28750;59.842;17.584;2022-10-30T12:09:12;7.10;99.90
43143;DHT22;28750;59.842;17.584;2022-10-30T12:11:41;7.20;99.90
43143;DHT22;28750;59.842;17.584;2022-10-30T12:14:29;7.20;99.90
43143;DHT22;28750;59.842;17.584;2022-10-30T12:16:57;7.20;99.90
43143;DHT22;28750;59.842;17.584;2022-10-30T12:19:25;7.10;1.00
43143;DHT22;28750;59.842;17.584;2022-10-30T12:21:53;7.00;99.90
43143;DHT22;28750;59.842;17.584;2022-10-30T12:24:29;7.00;1.00
43143;DHT22;28750;59.842;17.584;2022-10-30T12:27:01;6.90;62.20
43143;DHT22;28750;59.842;17.584;2022-10-30T12:29:59;6.90;1.00
43143;DHT22;28750;59.842;17.584;2022-10-30T12:35:38;6.90;1.00
43143;DHT22;28750;59.842;17.584;2022-10-30T12:38:13;6.90;1.00
43143;DHT22;28750;59.842;17.584;2022-10-30T12:40:45;6.80;1.00
43143;DHT22;28750;59.842;17.584;2022-10-30T12:43:23;6.80;99.90
43143;DHT22;28750;59.842;17.584;2022-10-30T12:45:55;6.90;1.00
43143;DHT22;28750;59.842;17.584;2022-10-30T12:48:31;7.00;99.90
43143;DHT22;28750;59.842;17.584;2022-10-30T12:53:39;6.90;1.00
43143;DHT22;28750;59.842;17.584;2022-10-30T12:56:16;6.90;99.90
43143;DHT22;28750;59.842;17.584;2022-10-30T12:59:16;6.80;99.90
43143;DHT22;28750;59.842;17.584;2022-10-30T13:02:41;6.80;99.90
43143;DHT22;28750;59.842;17.584;2022-10-30T13:04:44;7.00;99.90
43143;DHT22;28750;59.842;17.584;2022-10-30T13:07:37;6.90;99.90
43143;DHT22;28750;59.842;17.584;2022-10-30T13:12:51;6.80;99.90
43143;DHT22;28750;59.842;17.584;2022-10-30T13:15:39;6.70;99.90
43143;DHT22;28750;59.842;17.584;2022-10-30T13:18:19;6.70;99.90
43143;DHT22;28750;59.842;17.584;2022-10-30T13:24:00;6.70;99.90
43143;DHT22;28750;59.842;17.584;2022-10-30T13:42:54;6.90;99.90
43143;DHT22;28750;59.842;17.584;2022-10-30T13:48:23;6.80;99.90
43143;DHT22;28750;59.842;17.584;2022-10-30T13:53:26;6.80;99.90
43143;DHT22;28750;59.842;17.584;2022-10-30T13:55:55;6.80;99.90
43143;DHT22;28750;59.842;17.584;2022-10-30T14:09:19;6.70;99.90
43143;DHT22;28750;59.842;17.584;2022-10-30T14:11:52;6.70;99.90
43143;DHT22;28750;59.842;17.584;2022-10-30T14:14:27;6.60;99.90
43143;DHT22;28750;59.842;17.584;2022-10-30T14:17:13;6.70;99.90
43143;DHT22;28750;59.842;17.584;2022-10-30T14:20:20;6.60;99.90
43143;DHT22;28750;59.842;17.584;2022-10-30T14:23:14;6.60;99.90
43143;DHT22;28750;59.842;17.584;2022-10-30T14:28:33;6.50;99.90
43143;DHT22;28750;59.842;17.584;2022-10-30T14:31:34;6.50;99.90
43143;DHT22;28750;59.842;17.584;2022-10-30T14:34:01;6.50;1.00
43143;DHT22;28750;59.842;17.584;2022-10-30T14:41:47;6.20;99.90
43143;DHT22;28750;59.842;17.584;2022-10-30T14:55:31;5.60;54.50
43143;DHT22;28750;59.842;17.584;2022-10-30T15:00:36;5.60;1.00
43143;DHT22;28750;59.842;17.584;2022-10-30T15:03:14;5.60;1.00
43143;DHT22;28750;59.842;17.584;2022-10-30T15:06:11;5.60;99.90
43143;DHT22;28750;59.842;17.584;2022-10-30T15:12:25;5.40;99.90
43143;DHT22;28750;59.842;17.584;2022-10-30T15:14:59;5.30;1.00
43143;DHT22;28750;59.842;17.584;2022-10-30T15:18:08;5.30;90.70
43143;DHT22;28750;59.842;17.584;2022-10-30T15:20:39;5.20;99.90
43143;DHT22;28750;59.842;17.584;2022-10-30T15:23:19;5.20;99.90
43143;DHT22;28750;59.842;17.584;2022-10-30T15:25:51;5.10;99.90
43143;DHT22;28750;59.842;17.584;2022-10-30T15:28:27;5.10;99.90
43143;DHT22;28750;59.842;17.584;2022-10-30T15:31:18;5.00;99.90
43143;DHT22;28750;59.842;17.584;2022-10-30T15:33:46;4.80;99.90
43143;DHT22;28750;59.842;17.584;2022-10-30T15:36:23;4.80;99.90
43143;DHT22;28750;59.842;17.584;2022-10-30T15:41:30;4.60;99.90
43143;DHT22;28750;59.842;17.584;2022-10-30T15:43:57;4.60;1.00
43143;DHT22;28750;59.842;17.584;2022-10-30T15:46:24;4.60;18.10
43143;DHT22;28750;59.842;17.584;2022-10-30T15:48:52;4.60;66.20
43143;DHT22;28750;59.842;17.584;2022-10-30T15:51:21;4.50;29.80
43143;DHT22;28750;59.842;17.584;2022-10-30T15:53:55;4.50;1.00
43143;DHT22;28750;59.842;17.584;2022-10-30T15:56:37;4.50;53.60
43143;DHT22;28750;59.842;17.584;2022-10-30T15:59:20;4.40;96.70
43143;DHT22;28750;59.842;17.584;2022-10-30T16:01:49;4.40;96.80
43143;DHT22;28750;59.842;17.584;2022-10-30T16:04:23;4.50;61.00
43143;DHT22;28750;59.842;17.584;2022-10-30T16:06:53;4.40;23.60
43143;DHT22;28750;59.842;17.584;2022-10-30T16:09:22;4.50;38.30
43143;DHT22;28750;59.842;17.584;2022-10-30T16:11:51;4.40;99.90
43143;DHT22;28750;59.842;17.584;2022-10-30T16:14:26;4.30;99.90
43143;DHT22;28750;59.842;17.584;2022-10-30T16:16:54;4.30;99.90
43143;DHT22;28750;59.842;17.584;2022-10-30T16:19:26;4.10;99.90
43143;DHT22;28750;59.842;17.584;2022-10-30T16:21:55;4.10;99.90
43143;DHT22;28750;59.842;17.584;2022-10-30T16:24:27;4.10;1.00
43143;DHT22;28750;59.842;17.584;2022-10-30T16:27:05;4.00;99.90
43143;DHT22;28750;59.842;17.584;2022-10-30T16:29:33;4.00;99.90
43143;DHT22;28750;59.842;17.584;2022-10-30T16:32:00;4.10;99.90
43143;DHT22;28750;59.842;17.584;2022-10-30T16:34:30;3.90;99.90
43143;DHT22;28750;59.842;17.584;2022-10-30T16:37:01;3.70;99.90
43143;DHT22;28750;59.842;17.584;2022-10-30T16:39:30;3.80;99.90
43143;DHT22;28750;59.842;17.584;2022-10-30T16:41:59;3.90;99.90
43143;DHT22;28750;59.842;17.584;2022-10-30T16:44:27;3.90;99.90
43143;DHT22;28750;59.842;17.584;2022-10-30T16:49:32;3.80;99.90
43143;DHT22;28750;59.842;17.584;2022-10-30T16:52:06;3.90;99.90
43143;DHT22;28750;59.842;17.584;2022-10-30T16:54:40;3.90;99.90
43143;DHT22;28750;59.842;17.584;2022-10-30T16:57:29;3.80;99.90
43143;DHT22;28750;59.842;17.584;2022-10-30T16:59:58;3.70;99.90
43143;DHT22;28750;59.842;17.584;2022-10-30T17:02:31;3.60;99.90
43143;DHT22;28750;59.842;17.584;2022-10-30T17:05:09;3.50;99.90
43143;DHT22;28750;59.842;17.584;2022-10-30T17:07:37;3.50;99.90
43143;DHT22;28750;59.842;17.584;2022-10-30T17:10:28;3.40;99.90
43143;DHT22;28750;59.842;17.584;2022-10-30T17:18:42;3.70;99.90
43143;DHT22;28750;59.842;17.584;2022-10-30T17:21:17;3.50;99.90
43143;DHT22;28750;59.842;17.584;2022-10-30T17:23:47;3.40;99.90
43143;DHT22;28750;59.842;17.584;2022-10-30T17:26:16;3.40;99.90
43143;DHT22;28750;59.842;17.584;2022-10-30T17:28:44;3.40;99.90
43143;DHT22;28750;59.842;17.584;2022-10-30T17:34:09;3.30;99.90
43143;DHT22;28750;59.842;17.584;2022-10-30T17:36:37;3.10;99.90
43143;DHT22;28750;59.842;17.584;2022-10-30T17:39:05;3.30;99.90
43143;DHT22;28750;59.842;17.584;2022-10-30T17:41:32;3.30;99.90
43143;DHT22;28750;59.842;17.584;2022-10-30T17:43:59;3.30;1.00
43143;DHT22;28750;59.842;17.584;2022-10-30T17:46:27;3.30;1.00
43143;DHT22;28750;59.842;17.584;2022-10-30T17:48:56;3.20;99.90
43143;DHT22;28750;59.842;17.584;2022-10-30T17:51:23;3.00;15.70
43143;DHT22;28750;59.842;17.584;2022-10-30T17:53:51;2.90;49.80
43143;DHT22;28750;59.842;17.584;2022-10-30T17:56:27;2.90;99.90
43143;DHT22;28750;59.842;17.584;2022-10-30T17:58:55;2.90;99.90
43143;DHT22;28750;59.842;17.584;2022-10-30T18:01:24;3.00;99.90
43143;DHT22;28750;59.842;17.584;2022-10-30T18:03:53;3.10;99.90
43143;DHT22;28750;59.842;17.584;2022-10-30T18:06:22;3.10;97.00
43143;DHT22;28750;59.842;17.584;2022-10-30T18:08:50;3.10;24.50
43143;DHT22;28750;59.842;17.584;2022-10-30T18:11:19;2.90;1.00
43143;DHT22;28750;59.842;17.584;2022-10-30T18:13:47;2.90;1.00
43143;DHT22;28750;59.842;17.584;2022-10-30T18:16:15;2.90;1.00
43143;DHT22;28750;59.842;17.584;2022-10-30T18:18:43;2.90;1.00
43143;DHT22;28750;59.842;17.584;2022-10-30T18:21:17;2.70;1.00
43143;DHT22;28750;59.842;17.584;2022-10-30T18:23:45;2.80;1.00
43143;DHT22;28750;59.842;17.584;2022-10-30T18:26:15;2.80;1.00
43143;DHT22;28750;59.842;17.584;2022-10-30T18:28:42;2.80;1.00
43143;DHT22;28750;59.842;17.584;2022-10-30T18:31:11;2.70;1.00
43143;DHT22;28750;59.842;17.584;2022-10-30T18:33:42;2.60;1.00
43143;DHT22;28750;59.842;17.584;2022-10-30T18:36:20;2.50;1.00
43143;DHT22;28750;59.842;17.584;2022-10-30T18:38:48;2.50;1.00
43143;DHT22;28750;59.842;17.584;2022-10-30T18:41:30;2.50;1.00
43143;DHT22;28750;59.842;17.584;2022-10-30T18:43:58;2.50;1.00
43143;DHT22;28750;59.842;17.584;2022-10-30T18:46:25;2.50;1.00
43143;DHT22;28750;59.842;17.584;2022-10-30T18:48:52;2.50;1.00
43143;DHT22;28750;59.842;17.584;2022-10-30T18:51:25;2.40;1.00